Latest Weather Observations for Bundaberg

IDQ60801

Issued at 11:32 pm EST Friday 24 January 2020 (issued every 10 minutes, with the page automatically refreshed every 10 minutes)

About weather observations | Map of weather stations | Latest weather observations for QLD | Other Formats
Station Details ID: 039128 Name: BUNDABERG AERO Lat: -24.91 Lon: 152.32 Height: 30.82 m
Data from the previous 72 hours. | See also: Recent months at Bundaberg
Date/Time
EST
Temp
°C
App
Temp
°C
Dew
Point
°C
Rel
Hum
%
Delta-T
°C
Wind Press
QNH
hPa
Press
MSL
hPa
Rain since
9am
mm
Dir  Spd
km/h
Gust
km/h
Spd
kts
Gust
kts
24/11:30pm 26.8 30.0 23.1 80 2.5 NNE 11 17 6 9 1012.3 1012.1 2.0
24/11:00pm 26.9 30.2 23.2 80 2.5 NNE 11 15 6 8 1012.4 1012.2 2.0
24/10:30pm 26.8 30.6 23.5 82 2.3 NE 9 13 5 7 1012.3 1012.1 2.0
24/10:00pm 26.7 30.3 23.8 84 2.0 NNE 11 15 6 8 1012.0 1011.8 2.0
24/09:30pm 26.8 30.4 23.7 83 2.1 NNE 11 15 6 8 1011.7 1011.5 2.0
24/09:00pm 26.9 30.5 23.8 83 2.1 N 11 15 6 8 1011.5 1011.3 2.0
24/08:30pm 26.9 30.0 23.6 82 2.3 NNE 13 17 7 9 1011.1 1010.9 2.0
24/08:00pm 27.0 30.4 23.3 80 2.5 N 11 15 6 8 1011.0 1010.8 2.0
24/07:30pm 27.1 30.1 23.3 80 2.6 N 13 15 7 8 1011.0 1010.8 2.0
24/07:00pm 27.2 29.7 23.2 79 2.7 N 15 22 8 12 1010.7 1010.5 2.0
24/06:30pm 27.4 29.9 23.2 78 2.9 N 15 20 8 11 1010.4 1010.2 2.0
24/06:00pm 27.5 29.6 23.1 77 3.0 N 17 22 9 12 1010.2 1010.0 2.0
24/05:30pm 27.8 29.6 23.2 76 3.1 N 19 24 10 13 1009.8 1009.6 2.0
24/05:00pm 27.9 30.0 23.1 75 3.3 N 17 22 9 12 1010.0 1009.8 2.0
24/04:30pm 27.9 29.7 23.5 77 3.0 NNE 20 24 11 13 1010.0 1009.8 2.0
24/04:00pm 27.8 29.7 23.4 77 3.0 N 19 26 10 14 1009.8 1009.6 2.0
24/03:30pm 27.9 29.5 23.3 76 3.1 N 20 26 11 14 1010.2 1010.0 2.0
24/03:00pm 28.0 29.7 23.4 76 3.2 N 20 28 11 15 1010.5 1010.3 2.0
24/02:30pm 28.3 30.0 23.4 75 3.4 N 20 28 11 15 1010.6 1010.4 2.0
24/02:00pm 29.2 30.1 23.4 71 4.0 NNE 24 33 13 18 1010.8 1010.6 2.0
24/01:30pm 29.9 31.7 23.6 69 4.4 N 20 35 11 19 1010.8 1010.6 2.0
24/01:00pm 30.5 32.5 23.9 68 4.6 NNW 20 30 11 16 1011.2 1011.0 2.0
24/12:30pm 30.4 32.7 24.5 70 4.1 N 20 28 11 15 1011.5 1011.3 2.0
24/12:00pm 29.4 31.6 24.0 72 3.7 N 19 26 10 14 1011.9 1011.7 2.0
24/11:30am 29.8 31.6 23.5 69 4.3 N 20 28 11 15 1012.3 1012.1 2.0
24/11:00am 29.5 32.5 24.6 75 3.4 N 17 22 9 12 1012.7 1012.5 2.0
24/10:38am 27.8 30.5 24.2 81 2.5 N 17 22 9 12 1012.8 1012.6 2.0
24/10:30am 27.4 29.8 23.6 80 2.6 NNE 17 24 9 13 1012.9 1012.7 1.8
24/10:20am 27.5 29.8 23.5 79 2.7 NNE 17 24 9 13 1013.0 1012.8 1.6
24/10:00am 29.1 32.5 24.0 74 3.5 NNE 13 19 7 10 1013.0 1012.8 0.2
24/09:30am 28.3 31.5 24.3 79 2.8 NNE 15 22 8 12 1013.1 1012.9 0.2
24/09:00am 27.6 32.7 24.6 84 2.1 NNW 6 13 3 7 1013.4 1013.2 8.8
24/08:43am 26.5 32.8 24.7 90 1.3 CALM 0 4 0 2 1013.4 1013.2 8.6
24/08:30am 26.1 29.9 24.0 88 1.4 WNW 11 22 6 12 1013.4 1013.2 8.6
24/08:22am 26.3 29.5 24.3 89 1.4 NW 15 22 8 12 1013.4 1013.2 7.2
24/08:00am 27.2 29.9 24.1 83 2.1 N 17 22 9 12 1013.1 1012.9 5.8
24/07:30am 27.2 31.4 24.1 83 2.1 N 9 13 5 7 1012.8 1012.6 5.8
24/07:00am 26.9 31.3 24.4 86 1.7 N 9 13 5 7 1012.4 1012.2 5.8
24/06:30am 26.5 31.1 24.2 87 1.6 N 7 9 4 5 1012.2 1012.0 5.8
24/06:00am 26.3 30.3 23.8 86 1.7 N 9 13 5 7 1011.7 1011.5 5.8
24/05:30am 26.0 30.1 24.0 89 1.4 NNE 9 11 5 6 1011.2 1011.0 5.8
24/05:00am 25.9 29.6 23.9 89 1.4 NNE 11 13 6 7 1011.0 1010.8 5.8
24/04:30am 25.8 30.3 24.0 90 1.2 N 7 9 4 5 1011.0 1010.8 5.8
24/04:00am 25.7 29.8 23.9 90 1.2 N 9 13 5 7 1010.7 1010.5 5.8
24/03:30am 25.9 30.0 23.9 89 1.4 N 9 11 5 6 1011.0 1010.8 5.8
24/03:00am 25.9 29.9 23.8 88 1.4 N 9 15 5 8 1011.0 1010.8 5.8
24/02:30am 25.9 29.2 23.8 88 1.4 NNE 13 17 7 9 1011.0 1010.8 5.8
24/02:00am 25.7 28.5 23.7 89 1.4 NNE 15 19 8 10 1011.2 1011.0 5.8
24/01:41am 25.3 28.0 23.4 89 1.3 N 15 20 8 11 1011.6 1011.4 5.8
24/01:30am 25.3 27.9 23.9 92 1.0 NNW 17 26 9 14 1011.7 1011.5 5.8
24/01:28am 25.2 27.2 23.6 91 1.1 NNW 19 26 10 14 1011.7 1011.5 5.8
24/01:00am 25.6 30.0 24.4 93 0.8 NNE 9 13 5 7 1011.8 1011.6 5.2
24/12:30am 25.4 29.2 24.0 92 1.0 NNE 11 15 6 8 1012.1 1011.9 5.2
24/12:00am 25.4 27.5 23.8 91 1.1 N 19 24 10 13 1012.4 1012.2 5.2
 
Date/Time
EST
Temp
°C
App
Temp
°C
Dew
Point
°C
Rel
Hum
%
Delta-T
°C
Wind Press
QNH
hPa
Press
MSL
hPa
Rain since
9am
mm
Dir  Spd
km/h
Gust
km/h
Spd
kts
Gust
kts
23/11:30pm 26.0 28.9 23.9 88 1.4 NNE 15 20 8 11 1012.8 1012.6 5.2
23/11:00pm 25.7 27.7 23.6 88 1.4 NNE 19 22 10 12 1012.9 1012.7 5.2
23/10:43pm 26.2 28.9 23.5 85 1.8 NNE 15 22 8 12 1012.9 1012.7 5.2
23/10:30pm 26.2 30.5 24.2 89 1.4 NNE 9 19 5 10 1012.9 1012.7 5.2
23/10:21pm 26.2 31.0 24.4 90 1.2 NE 7 9 4 5 1012.9 1012.7 5.0
23/10:00pm 26.2 30.8 24.2 89 1.4 NE 7 7 4 4 1012.9 1012.7 5.0
23/09:30pm 26.2 30.4 24.1 88 1.4 NE 9 11 5 6 1012.6 1012.4 5.0
23/09:00pm 26.2 29.8 24.4 90 1.2 NNE 13 20 7 11 1012.1 1011.9 5.0
23/08:30pm 25.9 29.1 24.3 91 1.1 NE 15 19 8 10 1011.7 1011.5 5.0
23/08:00pm 26.2 28.6 24.2 89 1.4 NNE 19 24 10 13 1011.0 1010.8 5.0
23/07:30pm 26.5 32.0 24.7 90 1.3 NE 4 9 2 5 1011.0 1010.8 5.0
23/07:00pm 26.2 30.6 24.4 90 1.2 NE 9 13 5 7 1010.5 1010.3 5.0
23/06:30pm 26.2 29.4 24.4 90 1.2 NNE 15 19 8 10 1010.1 1009.9 4.8
23/06:00pm 26.4 29.6 24.4 89 1.4 NNE 15 19 8 10 1010.2 1010.0 4.6
23/05:30pm 26.7 30.2 24.2 86 1.7 NNE 13 19 7 10 1010.3 1010.1 4.0
23/05:00pm 27.1 29.7 24.0 83 2.1 NNE 17 20 9 11 1010.4 1010.2 3.8
23/04:30pm 27.4 30.1 24.1 82 2.3 NNE 17 22 9 12 1010.4 1010.2 3.8
23/04:00pm 27.8 30.0 24.2 81 2.5 NNE 20 24 11 13 1010.4 1010.2 3.6
23/03:30pm 27.9 29.8 23.5 77 3.0 N 19 22 10 12 1010.4 1010.2 3.6
23/03:00pm 27.9 29.8 23.5 77 3.0 N 19 24 10 13 1010.8 1010.6 3.6
23/02:30pm 28.0 30.2 24.0 79 2.8 N 19 22 10 12 1010.9 1010.7 3.6
23/02:00pm 27.7 30.0 24.1 81 2.5 NNE 19 24 10 13 1011.3 1011.1 3.6
23/01:30pm 27.6 29.7 23.8 80 2.6 NNE 19 22 10 12 1011.7 1011.5 3.6
23/01:00pm 28.2 30.1 23.8 77 3.0 N 20 26 11 14 1012.1 1011.9 3.4
23/12:30pm 28.0 30.0 24.6 82 2.4 NNE 22 30 12 16 1012.3 1012.1 3.4
23/12:00pm 28.0 31.9 24.8 83 2.2 NE 13 19 7 10 1012.4 1012.2 3.4
23/11:30am 27.9 31.6 25.1 85 2.0 N 15 22 8 12 1012.7 1012.5 3.4
23/11:00am 27.7 30.6 24.5 83 2.2 N 17 22 9 12 1013.0 1012.8 3.2
23/10:45am 27.4 30.6 25.0 87 1.7 N 17 24 9 13 1013.1 1012.9 3.2
23/10:30am 26.8 29.8 25.2 91 1.1 N 19 24 10 13 1013.1 1012.9 3.2
23/10:28am 27.3 30.5 25.9 92 1.0 N 20 24 11 13 1013.2 1013.0 3.2
23/10:00am 26.2 28.6 24.2 89 1.4 NW 19 26 10 14 1013.5 1013.3 2.8
23/09:35am 26.1 29.1 25.2 95 0.6 NW 19 28 10 15 1013.4 1013.2 2.2
23/09:30am 25.8 28.5 24.8 94 0.7 NW 19 26 10 14 1013.4 1013.2 1.8
23/09:18am 25.5 25.6 23.2 87 1.6 NW 28 35 15 19 1013.5 1013.3 1.2
23/09:00am 28.3 31.1 24.3 79 2.8 NNE 17 20 9 11 1013.4 1013.2 0.0
23/08:30am 27.4 29.3 23.8 81 2.5 N 20 24 11 13 1013.4 1013.2 0.0
23/08:00am 28.6 31.0 24.2 77 3.1 N 19 28 10 15 1013.1 1012.9 0.0
23/07:46am 28.8 32.4 25.6 83 2.3 NNE 17 24 9 13 1013.0 1012.8 0.0
23/07:30am 28.0 30.6 24.6 82 2.4 NNE 19 26 10 14 1012.9 1012.7 0.0
23/07:00am 26.7 28.6 24.4 87 1.6 NNE 22 32 12 17 1013.0 1012.8 0.0
23/06:54am 26.9 29.5 24.0 84 2.0 N 17 32 9 17 1012.8 1012.6 0.0
23/06:30am 27.2 30.6 24.7 86 1.7 NNE 15 24 8 13 1012.5 1012.3 0.0
23/06:13am 27.3 30.7 24.0 82 2.3 NNE 13 17 7 9 1012.4 1012.2 0.0
23/06:00am 27.2 30.1 23.9 82 2.3 NNE 15 19 8 10 1012.2 1012.0 0.0
23/05:30am 27.1 30.0 23.8 82 2.3 NNE 15 22 8 12 1011.9 1011.7 0.0
23/05:00am 27.2 30.5 23.9 82 2.3 NNE 13 19 7 10 1011.5 1011.3 0.0
23/04:30am 27.0 30.8 24.1 84 2.0 N 11 13 6 7 1011.1 1010.9 0.0
23/04:00am 26.9 29.8 24.4 86 1.7 NNE 17 24 9 13 1011.0 1010.8 0.0
23/03:30am 27.0 30.1 24.1 84 2.0 NNE 15 20 8 11 1011.0 1010.8 0.0
23/03:00am 27.1 29.7 24.0 83 2.1 NNE 17 22 9 12 1011.0 1010.8 0.0
23/02:30am 27.2 30.3 24.1 83 2.1 NNE 15 19 8 10 1011.1 1010.9 0.0
23/02:00am 27.2 30.3 24.1 83 2.1 NNE 15 20 8 11 1011.3 1011.1 0.0
23/01:30am 27.3 30.7 24.0 82 2.3 NNE 13 17 7 9 1011.7 1011.5 0.0
23/01:00am 27.4 30.3 23.8 81 2.5 NNE 15 20 8 11 1012.0 1011.8 0.0
23/12:30am 27.4 30.3 23.8 81 2.5 N 15 19 8 10 1012.4 1012.2 0.0
23/12:00am 27.5 30.1 23.9 81 2.5 N 17 20 9 11 1012.5 1012.3 0.0
 
Date/Time
EST
Temp
°C
App
Temp
°C
Dew
Point
°C
Rel
Hum
%
Delta-T
°C
Wind Press
QNH
hPa
Press
MSL
hPa
Rain since
9am
mm
Dir  Spd
km/h
Gust
km/h
Spd
kts
Gust
kts
22/11:30pm 27.4 30.1 24.1 82 2.3 NNE 17 20 9 11 1012.4 1012.2 0.0
22/11:00pm 27.5 30.6 24.1 82 2.4 NNE 15 20 8 11 1012.5 1012.3 0.0
22/10:30pm 27.7 30.0 24.1 81 2.5 NNE 19 22 10 12 1012.7 1012.5 0.0
22/10:00pm 27.8 30.0 24.0 80 2.6 NNE 19 24 10 13 1012.6 1012.4 0.0
22/09:30pm 27.9 30.5 23.9 79 2.8 N 17 22 9 12 1012.5 1012.3 0.0
22/09:00pm 28.0 30.5 24.4 81 2.5 NNE 19 24 10 13 1012.4 1012.2 0.0
22/08:30pm 28.0 30.5 24.4 81 2.5 NNE 19 22 10 12 1012.1 1011.9 0.0
22/08:00pm 28.1 30.4 24.1 79 2.8 N 19 24 10 13 1011.5 1011.3 0.0
22/07:30pm 28.1 30.3 23.9 78 2.9 NNE 19 26 10 14 1011.3 1011.1 0.0
22/07:00pm 28.3 30.1 24.3 79 2.8 NNE 22 32 12 17 1010.5 1010.3 0.0
22/06:30pm 28.4 30.2 24.2 78 2.9 NNE 22 32 12 17 1010.0 1009.8 0.0
22/06:00pm 28.6 29.6 23.5 74 3.5 NNE 24 32 13 17 1009.9 1009.7 0.0
22/05:30pm 28.6 30.0 24.2 77 3.1 NNE 24 33 13 18 1009.7 1009.5 0.0
22/05:00pm 28.9 29.6 23.6 73 3.7 NNE 26 33 14 18 1009.5 1009.3 0.0
22/04:30pm 30.1 30.5 23.8 69 4.4 NNE 28 35 15 19 1009.2 1009.0 0.0
22/04:00pm 30.6 30.6 23.0 64 5.2 NNE 28 39 15 21 1009.3 1009.1 0.0
22/03:30pm 30.4 30.7 23.6 67 4.7 NNE 28 35 15 19 1009.6 1009.4 0.0
22/03:00pm 32.1 33.0 23.9 62 5.7 NNE 26 35 14 19 1009.8 1009.6 0.0
22/02:30pm 32.2 33.0 23.2 59 6.2 NNE 24 39 13 21 1010.1 1009.9 0.0
22/02:28pm 31.8 32.1 22.2 56 6.5 NNE 24 33 13 18 1010.2 1010.0 0.0
22/02:12pm 31.7 31.3 22.4 58 6.4 NNE 28 39 15 21 1010.3 1010.1 0.0
22/02:00pm 32.5 32.4 22.3 55 7.0 N 26 33 14 18 1010.4 1010.2 0.0
22/01:30pm 32.3 31.8 22.1 55 6.9 NNE 28 37 15 20 1010.7 1010.5 0.0
22/01:00pm 32.2 31.8 21.7 54 7.1 NNE 26 35 14 19 1011.1 1010.9 0.0
22/12:30pm 32.1 32.2 21.9 54 6.9 N 24 33 13 18 1011.6 1011.4 0.0
22/12:00pm 32.2 32.5 22.3 56 6.8 N 24 35 13 19 1012.0 1011.8 0.0
22/11:30am 31.6 32.7 22.3 57 6.3 N 20 28 11 15 1012.2 1012.0 0.0
22/11:00am 31.4 31.8 21.8 56 6.5 N 22 32 12 17 1012.5 1012.3 0.0
22/10:30am 30.5 31.1 22.1 61 5.7 N 22 30 12 16 1012.5 1012.3 0.0
22/10:00am 30.6 30.8 21.4 58 6.2 N 22 32 12 17 1012.6 1012.4 0.0
22/09:30am 30.5 31.2 22.9 64 5.2 N 24 30 13 16 1012.5 1012.3 0.0
22/09:00am 29.9 30.6 22.3 63 5.2 N 22 28 12 15 1012.4 1012.2 0.0
22/08:30am 29.5 30.8 23.4 69 4.2 N 22 30 12 16 1012.3 1012.1 0.0
22/08:00am 29.0 30.3 22.7 69 4.3 N 20 26 11 14 1012.1 1011.9 0.0
22/07:30am 28.9 31.1 23.3 72 3.8 N 17 22 9 12 1012.0 1011.8 0.0
22/07:27am 29.1 31.6 23.8 73 3.7 N 17 22 9 12 1012.1 1011.9 0.0
22/07:09am 28.8 31.5 24.1 76 3.3 N 17 24 9 13 1012.0 1011.8 0.0
22/07:00am 28.4 30.9 23.8 76 3.2 NNW 17 24 9 13 1012.0 1011.8 0.0
22/06:30am 27.7 31.4 24.5 83 2.2 N 13 19 7 10 1011.6 1011.4 0.0
22/06:00am 26.7 30.3 24.4 87 1.6 N 13 17 7 9 1011.0 1010.8 0.0
22/05:30am 26.3 29.6 24.5 90 1.2 N 15 20 8 11 1010.5 1010.3 0.0
22/05:00am 26.2 29.3 24.2 89 1.4 N 15 17 8 9 1010.3 1010.1 0.0
22/04:30am 26.1 29.7 24.3 90 1.2 NNW 13 17 7 9 1010.1 1009.9 0.0
22/04:00am 26.0 29.5 24.2 90 1.2 NNW 13 17 7 9 1010.1 1009.9 0.0
22/03:30am 26.4 29.6 24.4 89 1.4 N 15 19 8 10 1009.8 1009.6 0.0
22/03:00am 26.4 29.5 24.2 88 1.5 N 15 20 8 11 1009.6 1009.4 0.0
22/02:30am 26.6 30.2 24.3 87 1.6 N 13 19 7 10 1009.5 1009.3 0.0
22/02:00am 26.9 30.9 24.4 86 1.7 N 11 17 6 9 1009.8 1009.6 0.0
22/01:30am 25.8 29.4 23.1 85 1.8 NE 9 11 5 6 1010.1 1009.9 0.0
22/01:00am 25.3 28.0 22.2 83 2.1 SE 11 13 6 7 1010.7 1010.5 0.0
22/12:59am 25.3 28.0 22.2 83 2.1 SE 11 13 6 7 1010.7 1010.5 0.0
22/12:30am 26.1 28.6 22.4 80 2.5 SSW 13 17 7 9 1011.4 1011.2 0.0
22/12:08am 27.2 31.1 24.3 84 2.0 WSW 11 15 6 8 1011.8 1011.6 0.0
22/12:00am 27.2 31.1 24.3 84 2.0 NW 11 15 6 8 1011.9 1011.7 0.0

Other formats

Comma delimited format used in spreadsheet applications
http://www.bom.gov.au/fwo/IDQ60801/IDQ60801.94387.axf

JavaScript Object Notation format (JSON) in row-major order
http://www.bom.gov.au/fwo/IDQ60801/IDQ60801.94387.json

Data quality

Most of these data are generated automatically and are frequently updated. Quality checks on data are not normally performed. It is possible for incorrect values to appear. Refer to information at About Latest Weather Observations and please check the disclaimer before using these data.